Time;durP1;ratioP1;P1;durP2;ratioP2;P2;SDS_P1;SDS_P2;PMS_P1;PMS_P2;Temp;Humidity;BMP_temperature;BMP_pressure;BME280_temperature;BME280_humidity;BME280_pressure;Samples;Min_cycle;Max_cycle;Signal;HPM_P1;HPM_P2
2021/06/11 00:01:35;;;;;;;11.70;10.50;;;;;;;;;;3615590;39;20424;-82
2021/06/11 00:04:02;;;;;;;10.87;9.87;;;;;;;;;;3604508;39;20705;-82
2021/06/11 00:06:28;;;;;;;13.27;11.10;;;;;;;;;;3617972;39;20399;-82
2021/06/11 00:08:55;;;;;;;11.07;9.97;;;;;;;;;;3614673;39;21065;-82
2021/06/11 00:11:21;;;;;;;11.80;10.70;;;;;;;;;;3609340;39;20508;-82
2021/06/11 00:13:47;;;;;;;11.33;10.13;;;;;;;;;;3617646;39;20425;-82
2021/06/11 00:16:14;;;;;;;16.40;11.30;;;;;;;;;;3617126;39;20490;-82
2021/06/11 00:18:40;;;;;;;12.43;11.23;;;;;;;;;;3616987;39;20409;-81
2021/06/11 00:21:06;;;;;;;12.80;11.57;;;;;;;;;;3614295;39;20421;-82
2021/06/11 00:23:32;;;;;;;12.13;10.80;;;;;;;;;;3625473;39;20424;-82
2021/06/11 00:25:58;;;;;;;12.30;11.20;;;;;;;;;;3603899;39;20412;-81
2021/06/11 00:28:24;;;;;;;12.07;10.63;;;;;;;;;;3617236;39;21231;-81
2021/06/11 00:30:51;;;;;;;12.23;10.93;;;;;;;;;;3608893;39;20388;-82
2021/06/11 00:33:18;;;;;;;13.40;11.10;;;;;;;;;;3604611;39;20409;-81
2021/06/11 00:35:44;;;;;;;13.33;10.73;;;;;;;;;;3616577;39;20984;-81
2021/06/11 00:38:11;;;;;;;12.63;11.33;;;;;;;;;;3608054;39;20516;-81
2021/06/11 00:40:39;;;;;;;12.13;10.87;;;;;;;;;;3617470;39;20416;-81
2021/06/11 00:43:11;;;;;;;11.50;10.40;;;;;;;;;;3606498;39;20503;-81
2021/06/11 00:45:38;;;;;;;15.30;10.80;;;;;;;;;;3616520;39;20400;-82
2021/06/11 00:48:04;;;;;;;12.10;11.10;;;;;;;;;;3617216;39;20583;-81
2021/06/11 00:50:34;;;;;;;10.57;9.50;;;;;;;;;;3616632;39;20490;-81
2021/06/11 00:53:02;;;;;;;13.87;11.30;;;;;;;;;;3606665;39;20440;-81
2021/06/11 00:55:28;;;;;;;12.67;11.40;;;;;;;;;;3624888;39;20401;-81
2021/06/11 00:57:55;;;;;;;12.73;10.43;;;;;;;;;;3625551;39;21965;-81
2021/06/11 01:00:23;;;;;;;12.20;11.10;;;;;;;;;;3617410;39;20406;-81
2021/06/11 01:02:49;;;;;;;12.70;10.97;;;;;;;;;;3619779;39;20909;-82
2021/06/11 01:05:16;;;;;;;12.17;11.07;;;;;;;;;;3619140;22;20440;-76
2021/06/11 01:07:43;;;;;;;13.83;11.50;;;;;;;;;;3580230;39;20459;-76
2021/06/11 01:10:09;;;;;;;15.73;11.97;;;;;;;;;;3593746;39;20423;-76
2021/06/11 01:12:36;;;;;;;13.50;12.20;;;;;;;;;;3595699;39;20426;-76
2021/06/11 01:15:03;;;;;;;15.97;12.53;;;;;;;;;;3585476;39;21182;-76
2021/06/11 01:17:30;;;;;;;13.40;11.40;;;;;;;;;;3596753;39;20543;-76
2021/06/11 01:19:57;;;;;;;11.43;10.43;;;;;;;;;;3586546;39;20407;-76
2021/06/11 01:22:31;;;;;;;13.67;12.20;;;;;;;;;;3596964;39;20442;-76
2021/06/11 01:24:57;;;;;;;12.20;10.90;;;;;;;;;;3591177;39;20395;-76
2021/06/11 01:27:24;;;;;;;11.70;10.43;;;;;;;;;;3597091;39;21180;-76
2021/06/11 01:29:52;;;;;;;12.87;11.57;;;;;;;;;;3596820;39;20737;-77
2021/06/11 01:32:19;;;;;;;11.73;10.53;;;;;;;;;;3585047;39;20406;-76
2021/06/11 01:34:48;;;;;;;13.30;11.90;;;;;;;;;;3587228;39;20407;-76
2021/06/11 01:37:25;;;;;;;15.63;11.20;;;;;;;;;;3584471;39;20409;-76
2021/06/11 01:39:54;;;;;;;13.83;11.17;;;;;;;;;;3597209;39;20922;-76
2021/06/11 01:42:21;;;;;;;12.17;11.00;;;;;;;;;;3596906;39;20446;-76
2021/06/11 01:44:48;;;;;;;14.07;11.03;;;;;;;;;;3586848;39;20401;-76
2021/06/11 01:47:16;;;;;;;12.60;9.97;;;;;;;;;;3596133;39;20398;-76
2021/06/11 01:49:43;;;;;;;13.43;10.33;;;;;;;;;;3592642;39;20411;-76
2021/06/11 01:52:11;;;;;;;11.37;10.37;;;;;;;;;;3576471;39;20427;-76
2021/06/11 01:54:38;;;;;;;13.43;11.63;;;;;;;;;;3596981;39;20394;-76
2021/06/11 01:57:04;;;;;;;11.80;10.50;;;;;;;;;;3587143;39;21162;-76
2021/06/11 01:59:31;;;;;;;13.37;11.77;;;;;;;;;;3590442;39;20421;-76
2021/06/11 02:01:57;;;;;;;13.30;12.00;;;;;;;;;;3582735;39;20977;-76
2021/06/11 02:04:24;;;;;;;15.00;11.53;;;;;;;;;;3596072;39;20852;-76
2021/06/11 02:06:51;;;;;;;13.63;12.33;;;;;;;;;;3596517;39;20420;-76
2021/06/11 02:09:18;;;;;;;14.80;12.37;;;;;;;;;;3587605;39;20748;-76
2021/06/11 02:11:44;;;;;;;14.53;12.07;;;;;;;;;;3586139;39;20414;-76
2021/06/11 02:14:14;;;;;;;14.20;12.20;;;;;;;;;;3587081;39;20431;-76
2021/06/11 02:16:41;;;;;;;12.40;11.20;;;;;;;;;;3595234;39;20404;-76
2021/06/11 02:19:07;;;;;;;12.83;11.57;;;;;;;;;;3597499;39;20435;-76
2021/06/11 02:21:33;;;;;;;13.00;10.87;;;;;;;;;;3596957;39;20406;-76
2021/06/11 02:23:59;;;;;;;14.33;11.47;;;;;;;;;;3584596;39;20443;-76
2021/06/11 02:26:26;;;;;;;12.67;11.40;;;;;;;;;;3581924;39;20399;-76
2021/06/11 02:28:52;;;;;;;13.10;10.80;;;;;;;;;;3584737;39;20421;-76
2021/06/11 02:31:19;;;;;;;13.57;11.97;;;;;;;;;;3597545;39;20423;-76
2021/06/11 02:33:45;;;;;;;16.13;11.93;;;;;;;;;;3596615;39;20489;-76
2021/06/11 02:36:11;;;;;;;15.07;13.53;;;;;;;;;;3579614;39;20381;-76
2021/06/11 02:38:37;;;;;;;15.87;12.77;;;;;;;;;;3596316;39;20423;-76
2021/06/11 02:41:05;;;;;;;14.83;13.30;;;;;;;;;;3585384;39;20410;-76
2021/06/11 02:43:32;;;;;;;17.97;12.47;;;;;;;;;;3588199;39;20473;-76
2021/06/11 02:46:16;;;;;;;15.20;12.73;;;;;;;;;;3596258;39;20405;-76
2021/06/11 02:48:45;;;;;;;15.67;13.00;;;;;;;;;;3585710;39;21126;-76
2021/06/11 02:51:30;;;;;;;13.90;12.50;;;;;;;;;;3596461;39;20414;-76
2021/06/11 02:53:57;;;;;;;18.00;13.83;;;;;;;;;;3595557;39;20426;-76
2021/06/11 02:56:26;;;;;;;14.53;12.97;;;;;;;;;;3586678;39;20455;-76
2021/06/11 02:59:06;;;;;;;17.80;14.10;;;;;;;;;;3585763;39;20415;-76
2021/06/11 03:01:36;;;;;;;18.10;14.73;;;;;;;;;;3596082;39;20422;-76
2021/06/11 03:04:02;;;;;;;18.30;13.20;;;;;;;;;;3595787;39;20509;-76
2021/06/11 03:06:31;;;;;;;19.07;15.77;;;;;;;;;;3597176;39;20451;-76
2021/06/11 03:08:57;;;;;;;16.07;14.37;;;;;;;;;;3596141;39;21088;-76
2021/06/11 03:11:30;;;;;;;16.23;14.57;;;;;;;;;;3596037;39;20407;-76
2021/06/11 03:13:56;;;;;;;17.90;15.53;;;;;;;;;;3596227;39;20431;-76
2021/06/11 03:16:26;;;;;;;16.50;14.67;;;;;;;;;;3594167;39;20411;-76
2021/06/11 03:18:57;;;;;;;15.87;14.20;;;;;;;;;;3594504;39;20413;-76
2021/06/11 03:21:31;;;;;;;16.93;15.13;;;;;;;;;;3596281;39;20983;-76
2021/06/11 03:24:09;;;;;;;17.00;14.47;;;;;;;;;;3596209;39;20391;-76
2021/06/11 03:27:02;;;;;;;18.37;16.43;;;;;;;;;;3583269;39;20997;-76
2021/06/11 03:29:35;;;;;;;21.30;15.67;;;;;;;;;;3547127;40;20589;-76
2021/06/11 03:32:04;;;;;;;17.40;15.40;;;;;;;;;;3538491;40;21263;-76
2021/06/11 03:34:32;;;;;;;16.77;14.83;;;;;;;;;;3542236;40;20438;-76
2021/06/11 03:36:58;;;;;;;20.90;16.07;;;;;;;;;;3548965;40;20415;-76
2021/06/11 03:39:28;;;;;;;29.40;17.53;;;;;;;;;;3528587;40;20480;-76
2021/06/11 03:41:54;;;;;;;22.93;16.00;;;;;;;;;;3547198;40;20436;-76
2021/06/11 03:44:21;;;;;;;18.93;15.60;;;;;;;;;;3544310;40;20656;-76
2021/06/11 03:46:48;;;;;;;20.50;17.03;;;;;;;;;;3539629;40;20431;-75
2021/06/11 03:49:15;;;;;;;17.53;15.73;;;;;;;;;;3548452;40;20525;-76
2021/06/11 03:51:42;;;;;;;22.77;16.47;;;;;;;;;;3547869;40;20427;-76
2021/06/11 03:54:11;;;;;;;17.20;15.43;;;;;;;;;;3545193;40;20562;-75
2021/06/11 03:56:37;;;;;;;18.40;16.40;;;;;;;;;;3540939;40;20864;-75
2021/06/11 03:59:04;;;;;;;16.13;14.53;;;;;;;;;;3545578;40;20434;-76
2021/06/11 04:01:33;;;;;;;17.80;15.90;;;;;;;;;;3542916;40;20461;-76
2021/06/11 04:04:00;;;;;;;21.27;14.50;;;;;;;;;;3547937;40;20494;-77
2021/06/11 04:06:36;;;;;;;16.77;15.27;;;;;;;;;;3574454;39;20401;-76
2021/06/11 04:09:06;;;;;;;20.00;15.77;;;;;;;;;;3596637;39;20410;-76
2021/06/11 04:11:33;;;;;;;18.80;16.90;;;;;;;;;;3595670;39;20696;-76
2021/06/11 04:14:00;;;;;;;21.73;16.50;;;;;;;;;;3581861;39;20391;-76
2021/06/11 04:16:46;;;;;;;24.33;16.87;;;;;;;;;;3585919;39;20479;-76
2021/06/11 04:19:20;;;;;;;20.97;18.67;;;;;;;;;;3594715;39;20476;-76
2021/06/11 04:21:47;;;;;;;20.57;18.57;;;;;;;;;;3586378;39;20503;-76
2021/06/11 04:24:14;;;;;;;21.87;19.47;;;;;;;;;;3581575;39;20831;-76
2021/06/11 04:26:40;;;;;;;19.47;16.90;;;;;;;;;;3595300;39;20435;-76
2021/06/11 04:29:11;;;;;;;20.07;18.07;;;;;;;;;;3596843;39;21169;-76
2021/06/11 04:31:37;;;;;;;19.00;17.00;;;;;;;;;;3595491;39;20399;-77
2021/06/11 04:34:04;;;;;;;18.30;16.10;;;;;;;;;;3595777;39;20895;-76
2021/06/11 04:36:31;;;;;;;19.37;17.17;;;;;;;;;;3596832;39;20400;-77
2021/06/11 04:38:59;;;;;;;18.77;16.23;;;;;;;;;;3596047;39;20381;-76
2021/06/11 04:41:26;;;;;;;18.30;16.40;;;;;;;;;;3585212;39;20937;-76
2021/06/11 04:43:52;;;;;;;20.90;17.90;;;;;;;;;;3595884;39;20371;-76
2021/06/11 04:46:18;;;;;;;17.17;15.53;;;;;;;;;;3594086;39;20415;-76
2021/06/11 04:48:45;;;;;;;29.97;16.77;;;;;;;;;;3596631;39;20459;-76
2021/06/11 04:51:11;;;;;;;21.90;16.20;;;;;;;;;;3587038;39;20458;-76
2021/06/11 04:53:37;;;;;;;17.10;15.07;;;;;;;;;;3585702;39;20377;-76
2021/06/11 04:56:07;;;;;;;16.40;14.80;;;;;;;;;;3586600;39;20451;-76
2021/06/11 04:58:33;;;;;;;17.63;15.20;;;;;;;;;;3597272;39;20440;-75
2021/06/11 05:00:59;;;;;;;16.63;14.53;;;;;;;;;;3597072;39;20438;-76
2021/06/11 05:03:25;;;;;;;14.50;13.23;;;;;;;;;;3597514;39;20807;-76
2021/06/11 05:05:51;;;;;;;17.07;14.40;;;;;;;;;;3587339;39;20426;-76
2021/06/11 05:08:17;;;;;;;17.40;15.10;;;;;;;;;;3597870;39;20774;-76
2021/06/11 05:10:43;;;;;;;14.57;13.00;;;;;;;;;;3596283;39;20512;-75
2021/06/11 05:13:09;;;;;;;14.70;13.20;;;;;;;;;;3592537;39;20919;-76
2021/06/11 05:15:35;;;;;;;17.03;12.77;;;;;;;;;;3597263;39;20430;-76
2021/06/11 05:18:05;;;;;;;15.40;13.00;;;;;;;;;;3597461;39;20971;-77
2021/06/11 05:20:32;;;;;;;16.00;13.00;;;;;;;;;;3587929;39;21194;-78
2021/06/11 05:22:58;;;;;;;15.57;13.40;;;;;;;;;;3589179;39;20386;-76
2021/06/11 05:25:24;;;;;;;14.30;12.90;;;;;;;;;;3588866;39;20827;-76
2021/06/11 05:27:50;;;;;;;14.27;12.33;;;;;;;;;;3586596;39;20422;-76
2021/06/11 05:30:18;;;;;;;14.30;12.90;;;;;;;;;;3589239;39;20438;-77
2021/06/11 05:32:44;;;;;;;15.10;13.63;;;;;;;;;;3598072;39;20383;-78
2021/06/11 05:35:10;;;;;;;14.93;11.83;;;;;;;;;;3596974;39;20446;-75
2021/06/11 05:37:36;;;;;;;15.20;13.10;;;;;;;;;;3590862;39;20897;-75
2021/06/11 05:40:03;;;;;;;21.63;13.37;;;;;;;;;;3600775;39;20469;-75
2021/06/11 05:42:29;;;;;;;14.77;13.23;;;;;;;;;;3590382;39;20496;-75
2021/06/11 05:44:55;;;;;;;16.07;13.87;;;;;;;;;;3599454;39;20458;-75
2021/06/11 05:47:21;;;;;;;15.90;12.80;;;;;;;;;;3589707;39;20411;-75
2021/06/11 05:49:47;;;;;;;14.47;13.07;;;;;;;;;;3600456;39;20437;-75
2021/06/11 05:52:13;;;;;;;13.93;12.67;;;;;;;;;;3589771;39;20395;-75
2021/06/11 05:54:39;;;;;;;13.90;12.50;;;;;;;;;;3599848;39;20426;-76
2021/06/11 05:57:05;;;;;;;13.57;12.27;;;;;;;;;;3599408;39;21323;-74
2021/06/11 05:59:31;;;;;;;12.90;11.57;;;;;;;;;;3600205;39;20694;-75
2021/06/11 06:01:57;;;;;;;15.30;13.67;;;;;;;;;;3581046;39;20504;-75
2021/06/11 06:04:23;;;;;;;14.17;12.70;;;;;;;;;;3598959;39;20418;-75
2021/06/11 06:06:49;;;;;;;14.37;12.87;;;;;;;;;;3570735;39;20507;-76
2021/06/11 06:09:15;;;;;;;14.67;13.17;;;;;;;;;;3579213;39;20408;-76
2021/06/11 06:11:41;;;;;;;15.97;14.27;;;;;;;;;;3562511;39;20687;-75
2021/06/11 06:14:08;;;;;;;15.60;13.97;;;;;;;;;;3579510;39;20424;-76
2021/06/11 06:16:36;;;;;;;14.00;12.70;;;;;;;;;;3589545;39;20404;-76
2021/06/11 06:19:02;;;;;;;16.67;13.47;;;;;;;;;;3588946;39;20423;-76
2021/06/11 06:21:30;;;;;;;13.83;12.43;;;;;;;;;;3590370;39;20400;-76
2021/06/11 06:23:56;;;;;;;14.30;12.83;;;;;;;;;;3588613;39;20418;-76
2021/06/11 06:26:22;;;;;;;15.60;13.30;;;;;;;;;;3589593;39;20564;-75
2021/06/11 06:28:48;;;;;;;15.43;12.70;;;;;;;;;;3585830;39;20478;-75
2021/06/11 06:31:14;;;;;;;15.67;13.60;;;;;;;;;;3577477;39;20399;-75
2021/06/11 06:33:40;;;;;;;15.57;13.80;;;;;;;;;;3587255;39;20408;-75
2021/06/11 06:36:08;;;;;;;14.07;12.60;;;;;;;;;;3579318;39;20523;-76
2021/06/11 06:38:35;;;;;;;15.67;14.07;;;;;;;;;;3587961;39;20415;-76
2021/06/11 06:41:01;;;;;;;15.27;13.63;;;;;;;;;;3580441;39;20449;-75
2021/06/11 06:43:32;;;;;;;16.50;14.30;;;;;;;;;;3580045;39;21144;-75
2021/06/11 06:45:58;;;;;;;17.00;15.13;;;;;;;;;;3580838;39;20396;-75
2021/06/11 06:48:24;;;;;;;16.00;13.53;;;;;;;;;;3590229;39;20515;-75
2021/06/11 06:50:51;;;;;;;15.30;13.73;;;;;;;;;;3580096;39;20952;-76
2021/06/11 06:53:18;;;;;;;16.47;13.83;;;;;;;;;;3579923;39;20500;-76
2021/06/11 06:55:44;;;;;;;15.20;12.77;;;;;;;;;;3572153;39;21111;-75
2021/06/11 06:58:11;;;;;;;13.40;12.10;;;;;;;;;;3573628;39;21158;-75
2021/06/11 07:00:37;;;;;;;18.87;14.60;;;;;;;;;;3585211;39;21113;-75
2021/06/11 07:03:03;;;;;;;16.57;13.47;;;;;;;;;;3587293;39;20412;-76
2021/06/11 07:05:29;;;;;;;17.47;15.30;;;;;;;;;;3591463;39;20462;-75
2021/06/11 07:07:55;;;;;;;15.90;14.40;;;;;;;;;;3583912;39;20422;-75
2021/06/11 07:10:22;;;;;;;15.17;13.17;;;;;;;;;;3593588;39;20403;-75
2021/06/11 07:12:48;;;;;;;17.67;12.60;;;;;;;;;;3584560;39;20750;-76
2021/06/11 07:15:14;;;;;;;15.20;13.20;;;;;;;;;;3592486;39;20423;-75
2021/06/11 07:17:41;;;;;;;14.53;12.93;;;;;;;;;;3583460;39;20411;-75
2021/06/11 07:20:07;;;;;;;19.33;15.40;;;;;;;;;;3594744;39;20383;-76
2021/06/11 07:22:33;;;;;;;14.80;13.47;;;;;;;;;;3594815;39;21073;-76
2021/06/11 07:25:05;;;;;;;15.30;13.70;;;;;;;;;;3594868;39;20852;-77
2021/06/11 07:27:32;;;;;;;15.20;13.60;;;;;;;;;;3585529;39;20451;-75
2021/06/11 07:30:03;;;;;;;17.53;13.00;;;;;;;;;;3594867;39;20426;-76
2021/06/11 07:32:29;;;;;;;15.20;13.30;;;;;;;;;;3573846;39;20688;-77
2021/06/11 07:34:55;;;;;;;15.83;13.23;;;;;;;;;;3586920;39;20419;-76
2021/06/11 07:37:22;;;;;;;16.63;13.80;;;;;;;;;;3596267;39;20547;-76
2021/06/11 07:39:48;;;;;;;14.77;12.17;;;;;;;;;;3596834;39;20407;-77
2021/06/11 07:42:14;;;;;;;15.73;11.40;;;;;;;;;;3599718;39;20403;-76
2021/06/11 07:44:41;;;;;;;15.00;13.17;;;;;;;;;;3598719;39;20422;-77
2021/06/11 07:47:07;;;;;;;15.67;14.07;;;;;;;;;;3582457;39;20412;-78
2021/06/11 07:49:33;;;;;;;19.00;14.13;;;;;;;;;;3601760;39;20397;-76
2021/06/11 07:51:59;;;;;;;16.83;14.50;;;;;;;;;;3600291;39;20917;-76
2021/06/11 07:54:26;;;;;;;17.23;14.43;;;;;;;;;;3598169;39;20452;-76
2021/06/11 07:56:52;;;;;;;21.30;13.80;;;;;;;;;;3576656;39;20394;-76
2021/06/11 07:59:20;;;;;;;17.60;14.90;;;;;;;;;;3589715;39;20761;-75
2021/06/11 08:01:46;;;;;;;15.07;13.53;;;;;;;;;;3588096;39;20406;-76
2021/06/11 08:04:12;;;;;;;20.77;14.60;;;;;;;;;;3600565;39;20962;-75
2021/06/11 08:06:39;;;;;;;16.33;14.27;;;;;;;;;;3598611;39;20415;-77
2021/06/11 08:09:05;;;;;;;22.27;14.10;;;;;;;;;;3600850;39;20433;-75
2021/06/11 08:11:31;;;;;;;17.27;12.20;;;;;;;;;;3590103;39;20422;-76
2021/06/11 08:13:57;;;;;;;18.20;14.03;;;;;;;;;;3581768;39;20528;-77
2021/06/11 08:16:24;;;;;;;18.53;14.00;;;;;;;;;;3600360;39;20418;-76
2021/06/11 08:18:51;;;;;;;17.87;12.63;;;;;;;;;;3581117;39;20438;-76
2021/06/11 08:21:18;;;;;;;15.30;13.40;;;;;;;;;;3586053;39;20425;-76
2021/06/11 08:23:44;;;;;;;18.00;14.00;;;;;;;;;;3590080;39;20497;-76
2021/06/11 08:26:13;;;;;;;20.93;16.07;;;;;;;;;;3587763;39;20410;-77
2021/06/11 08:28:39;;;;;;;18.50;13.83;;;;;;;;;;3600772;39;20793;-76
2021/06/11 08:31:05;;;;;;;16.00;14.40;;;;;;;;;;3582714;39;20406;-77
2021/06/11 08:33:31;;;;;;;17.37;13.53;;;;;;;;;;3599831;39;20547;-77
2021/06/11 08:35:57;;;;;;;16.43;14.50;;;;;;;;;;3573806;39;20450;-77
2021/06/11 08:38:24;;;;;;;16.03;14.47;;;;;;;;;;3601372;39;20426;-76
2021/06/11 08:40:51;;;;;;;16.00;14.33;;;;;;;;;;3600570;39;20470;-76
2021/06/11 08:43:19;;;;;;;15.90;9.70;;;;;;;;;;3585331;39;20427;-78
2021/06/11 08:45:46;;;;;;;12.57;11.10;;;;;;;;;;3587339;39;20527;-76
2021/06/11 08:48:12;;;;;;;15.07;11.20;;;;;;;;;;3598232;39;20386;-77
2021/06/11 08:50:41;;;;;;;12.53;11.13;;;;;;;;;;3599161;39;20419;-76
2021/06/11 08:53:07;;;;;;;10.77;9.70;;;;;;;;;;3599303;39;20959;-76
2021/06/11 08:55:34;;;;;;;9.83;8.83;;;;;;;;;;3598422;39;20421;-76
2021/06/11 08:58:00;;;;;;;15.13;10.40;;;;;;;;;;3600697;39;20388;-76
2021/06/11 09:00:28;;;;;;;15.30;13.70;;;;;;;;;;3594289;39;21109;-77
2021/06/11 09:03:13;;;;;;;15.70;14.17;;;;;;;;;;3588770;39;20400;-76
2021/06/11 09:05:40;;;;;;;12.83;11.63;;;;;;;;;;3599124;39;20555;-76
2021/06/11 09:08:15;;;;;;;12.77;11.50;;;;;;;;;;3591504;39;20423;-76
2021/06/11 09:10:42;;;;;;;14.03;12.17;;;;;;;;;;3589514;39;20502;-76
2021/06/11 09:13:08;;;;;;;17.90;16.30;;;;;;;;;;3591102;39;21169;-76
2021/06/11 09:15:34;;;;;;;21.33;19.40;;;;;;;;;;3587571;39;20426;-76
2021/06/11 09:18:00;;;;;;;19.90;18.03;;;;;;;;;;3589300;39;20968;-77
2021/06/11 09:20:33;;;;;;;20.33;18.33;;;;;;;;;;3588707;39;20399;-77
2021/06/11 09:23:00;;;;;;;21.63;19.70;;;;;;;;;;3580683;39;20749;-75
2021/06/11 09:25:29;;;;;;;20.67;18.63;;;;;;;;;;3598102;39;20484;-76
2021/06/11 09:27:56;;;;;;;21.33;19.43;;;;;;;;;;3588170;39;20411;-76
2021/06/11 09:30:25;;;;;;;20.40;18.70;;;;;;;;;;3598881;39;20423;-76
2021/06/11 09:32:55;;;;;;;18.97;17.47;;;;;;;;;;3597985;39;20408;-76
2021/06/11 09:35:28;;;;;;;18.23;16.30;;;;;;;;;;3588704;39;20423;-75
2021/06/11 09:38:07;;;;;;;17.73;16.23;;;;;;;;;;3576311;39;20375;-76
2021/06/11 09:40:33;;;;;;;19.83;18.00;;;;;;;;;;3601506;39;20399;-76
2021/06/11 09:43:04;;;;;;;19.80;17.87;;;;;;;;;;3590456;39;20418;-76
2021/06/11 09:45:30;;;;;;;19.13;17.33;;;;;;;;;;3601511;39;20466;-76
2021/06/11 09:47:56;;;;;;;24.33;21.10;;;;;;;;;;3601610;39;20403;-76
2021/06/11 09:50:28;;;;;;;20.77;18.97;;;;;;;;;;3599858;39;20454;-76
2021/06/11 09:52:54;;;;;;;20.63;18.90;;;;;;;;;;3585423;39;20422;-76
2021/06/11 09:55:27;;;;;;;23.43;21.37;;;;;;;;;;3582240;39;20746;-76
2021/06/11 09:58:07;;;;;;;23.77;21.80;;;;;;;;;;3601498;39;20481;-76
2021/06/11 10:00:34;;;;;;;23.63;21.63;;;;;;;;;;3591824;39;20787;-75
2021/06/11 10:03:00;;;;;;;23.53;21.43;;;;;;;;;;3578562;39;20454;-75
2021/06/11 10:05:29;;;;;;;22.40;20.57;;;;;;;;;;3590723;39;20463;-75
2021/06/11 10:07:56;;;;;;;22.17;20.10;;;;;;;;;;3600146;39;20492;-75
2021/06/11 10:10:22;;;;;;;22.97;20.97;;;;;;;;;;3597952;39;20756;-77
2021/06/11 10:12:48;;;;;;;23.40;21.23;;;;;;;;;;3591043;39;20419;-75
2021/06/11 10:15:15;;;;;;;25.17;23.03;;;;;;;;;;3589060;39;20591;-75
2021/06/11 10:17:42;;;;;;;26.23;23.93;;;;;;;;;;3601166;39;20532;-75
2021/06/11 10:20:10;;;;;;;24.00;22.00;;;;;;;;;;3600273;39;20415;-75
2021/06/11 10:22:37;;;;;;;24.97;23.10;;;;;;;;;;3600121;39;21174;-75
2021/06/11 10:25:03;;;;;;;21.53;19.93;;;;;;;;;;3597506;39;20489;-75
2021/06/11 10:27:29;;;;;;;24.53;22.60;;;;;;;;;;3591928;39;20398;-75
2021/06/11 10:29:55;;;;;;;22.87;21.17;;;;;;;;;;3589884;39;20934;-75
2021/06/11 10:32:21;;;;;;;22.80;20.83;;;;;;;;;;3600553;39;20465;-76
2021/06/11 10:34:52;;;;;;;19.03;17.63;;;;;;;;;;3597910;39;21524;-75
2021/06/11 10:37:32;;;;;;;18.70;17.20;;;;;;;;;;3599769;39;20494;-76
2021/06/11 10:40:13;;;;;;;17.63;16.43;;;;;;;;;;3588448;39;20399;-76
2021/06/11 10:42:39;;;;;;;13.70;12.60;;;;;;;;;;3600757;39;20436;-75
2021/06/11 10:45:06;;;;;;;15.20;14.00;;;;;;;;;;3592268;39;20438;-76
2021/06/11 10:47:34;;;;;;;17.87;16.03;;;;;;;;;;3592771;39;20403;-76
2021/06/11 10:50:00;;;;;;;19.50;18.10;;;;;;;;;;3591439;39;20481;-76
2021/06/11 10:52:30;;;;;;;19.23;17.83;;;;;;;;;;3588285;39;20856;-75
2021/06/11 10:54:56;;;;;;;18.47;16.93;;;;;;;;;;3600781;39;20608;-75
2021/06/11 10:57:22;;;;;;;16.43;14.83;;;;;;;;;;3602218;39;20742;-75
2021/06/11 10:59:49;;;;;;;11.40;10.07;;;;;;;;;;3583981;39;20692;-75
2021/06/11 11:02:19;;;;;;;9.13;8.43;;;;;;;;;;3601619;39;20862;-75
2021/06/11 11:04:50;;;;;;;11.63;9.40;;;;;;;;;;3583000;39;20883;-75
2021/06/11 11:07:27;;;;;;;14.53;13.13;;;;;;;;;;3602311;39;20411;-75
2021/06/11 11:09:58;;;;;;;10.23;9.27;;;;;;;;;;3601921;39;20427;-76
2021/06/11 11:12:27;;;;;;;8.37;7.57;;;;;;;;;;3601703;39;20407;-75
2021/06/11 11:14:54;;;;;;;10.10;7.30;;;;;;;;;;3586941;39;20500;-75
2021/06/11 11:17:21;;;;;;;8.10;7.33;;;;;;;;;;3600169;39;20420;-76
2021/06/11 11:19:55;;;;;;;9.67;8.87;;;;;;;;;;3601838;39;20411;-75
2021/06/11 11:22:25;;;;;;;8.50;7.70;;;;;;;;;;3597368;39;20819;-76
2021/06/11 11:24:52;;;;;;;8.60;7.87;;;;;;;;;;3602330;39;20423;-76
2021/06/11 11:27:18;;;;;;;8.33;7.73;;;;;;;;;;3602242;39;20690;-76
2021/06/11 11:29:44;;;;;;;11.77;8.20;;;;;;;;;;3601686;39;20762;-76
2021/06/11 11:32:10;;;;;;;9.20;8.47;;;;;;;;;;3586951;39;20439;-76
2021/06/11 11:34:36;;;;;;;10.70;9.77;;;;;;;;;;3601631;39;20677;-76
2021/06/11 11:37:03;;;;;;;10.50;9.60;;;;;;;;;;3592360;39;20399;-76
2021/06/11 11:39:29;;;;;;;10.87;9.80;;;;;;;;;;3601874;39;20492;-75
2021/06/11 11:41:56;;;;;;;8.87;8.20;;;;;;;;;;3601439;39;20418;-76
2021/06/11 11:44:23;;;;;;;7.10;6.10;;;;;;;;;;3599568;39;20407;-77
2021/06/11 11:46:49;;;;;;;8.53;7.83;;;;;;;;;;3581876;39;21298;-76
2021/06/11 11:49:16;;;;;;;7.60;7.00;;;;;;;;;;3601640;39;20425;-76
2021/06/11 11:51:42;;;;;;;7.27;6.67;;;;;;;;;;3601094;39;21031;-76
2021/06/11 11:54:08;;;;;;;7.83;7.33;;;;;;;;;;3595985;39;20911;-76
2021/06/11 11:56:34;;;;;;;8.40;7.73;;;;;;;;;;3602738;39;20418;-76
2021/06/11 11:59:05;;;;;;;7.10;6.60;;;;;;;;;;3600473;39;20410;-76
2021/06/11 12:01:31;;;;;;;7.10;6.60;;;;;;;;;;3598401;39;20405;-75
2021/06/11 12:03:57;;;;;;;7.87;7.23;;;;;;;;;;3588268;39;20423;-75
2021/06/11 12:06:24;;;;;;;7.50;7.00;;;;;;;;;;3600389;39;20403;-75
2021/06/11 12:08:50;;;;;;;7.60;6.90;;;;;;;;;;3588406;39;20969;-76
2021/06/11 12:11:16;;;;;;;7.13;6.63;;;;;;;;;;3600054;39;20406;-76
2021/06/11 12:13:43;;;;;;;6.90;6.30;;;;;;;;;;3600907;39;20781;-75
2021/06/11 12:16:09;;;;;;;7.73;7.10;;;;;;;;;;3590553;39;20816;-76
2021/06/11 12:18:35;;;;;;;10.10;9.50;;;;;;;;;;3601495;39;20399;-76
2021/06/11 12:21:02;;;;;;;7.10;6.40;;;;;;;;;;3588600;39;20418;-76
2021/06/11 12:23:28;;;;;;;8.50;7.40;;;;;;;;;;3599981;39;20407;-76
2021/06/11 12:25:55;;;;;;;9.20;7.33;;;;;;;;;;3595715;39;20396;-76
2021/06/11 12:28:21;;;;;;;8.47;7.67;;;;;;;;;;3589208;39;20465;-76
2021/06/11 12:30:47;;;;;;;6.90;6.30;;;;;;;;;;3598104;39;20455;-76
2021/06/11 12:33:14;;;;;;;6.53;5.83;;;;;;;;;;3598885;39;20419;-76
2021/06/11 12:35:40;;;;;;;8.73;8.10;;;;;;;;;;3595965;39;20478;-76
2021/06/11 12:38:06;;;;;;;8.40;7.60;;;;;;;;;;3600032;39;20469;-76
2021/06/11 12:40:32;;;;;;;8.30;7.60;;;;;;;;;;3586741;39;20414;-76
2021/06/11 12:43:07;;;;;;;8.60;7.90;;;;;;;;;;3588120;39;21047;-76
2021/06/11 12:45:35;;;;;;;7.63;6.87;;;;;;;;;;3599405;39;20442;-76
2021/06/11 12:48:01;;;;;;;7.37;6.53;;;;;;;;;;3595001;39;20874;-76
2021/06/11 12:50:28;;;;;;;7.87;7.27;;;;;;;;;;3589583;39;20752;-76
2021/06/11 12:52:54;;;;;;;8.00;7.27;;;;;;;;;;3591560;39;20427;-75
2021/06/11 12:55:21;;;;;;;6.10;5.80;;;;;;;;;;3599721;39;20402;-76
2021/06/11 12:57:47;;;;;;;7.70;6.90;;;;;;;;;;3598112;39;20450;-76
2021/06/11 13:00:14;;;;;;;6.47;5.00;;;;;;;;;;3590156;39;20410;-76
2021/06/11 13:02:40;;;;;;;9.60;7.23;;;;;;;;;;3597769;39;20406;-76
2021/06/11 13:05:06;;;;;;;6.67;6.07;;;;;;;;;;3599067;39;20488;-75
2021/06/11 13:07:32;;;;;;;7.10;5.90;;;;;;;;;;3600193;39;20528;-76
2021/06/11 13:09:58;;;;;;;8.47;7.87;;;;;;;;;;3590374;39;20399;-76
2021/06/11 13:12:24;;;;;;;7.63;7.13;;;;;;;;;;3601638;39;20410;-76
2021/06/11 13:14:50;;;;;;;7.67;7.07;;;;;;;;;;3600822;39;20829;-76
2021/06/11 13:17:16;;;;;;;5.13;4.70;;;;;;;;;;3599063;39;20398;-76
2021/06/11 13:19:42;;;;;;;11.17;8.97;;;;;;;;;;3601344;39;21268;-76
2021/06/11 13:22:08;;;;;;;8.20;7.27;;;;;;;;;;3589257;39;20405;-75
2021/06/11 13:24:34;;;;;;;7.13;6.27;;;;;;;;;;3584065;39;20402;-76
2021/06/11 13:27:00;;;;;;;7.33;6.80;;;;;;;;;;3591114;39;20422;-76
2021/06/11 13:29:26;;;;;;;4.90;4.50;;;;;;;;;;3588057;39;20399;-76
2021/06/11 13:31:53;;;;;;;7.97;7.47;;;;;;;;;;3590313;39;20418;-76
2021/06/11 13:34:19;;;;;;;7.70;5.17;;;;;;;;;;3594958;39;20523;-75
2021/06/11 13:36:45;;;;;;;7.20;6.80;;;;;;;;;;3590849;39;20388;-76
2021/06/11 13:39:11;;;;;;;6.57;6.20;;;;;;;;;;3592373;39;20817;-75
2021/06/11 13:41:37;;;;;;;4.50;4.20;;;;;;;;;;3601492;39;20405;-76
2021/06/11 13:44:05;;;;;;;4.70;4.13;;;;;;;;;;3591372;39;20438;-76
2021/06/11 13:46:31;;;;;;;7.50;6.77;;;;;;;;;;3600416;39;20426;-76
2021/06/11 13:48:57;;;;;;;6.73;6.13;;;;;;;;;;3591432;39;20586;-76
2021/06/11 13:51:23;;;;;;;8.10;7.40;;;;;;;;;;3590381;39;20414;-76
2021/06/11 13:53:50;;;;;;;6.17;5.67;;;;;;;;;;3592282;39;20833;-76
2021/06/11 13:56:17;;;;;;;6.27;5.77;;;;;;;;;;3591061;39;20464;-76
2021/06/11 13:58:43;;;;;;;7.43;6.70;;;;;;;;;;3587785;39;20866;-76
2021/06/11 14:01:10;;;;;;;6.33;5.93;;;;;;;;;;3601665;39;20937;-76
2021/06/11 14:03:36;;;;;;;4.43;4.00;;;;;;;;;;3583618;39;20499;-76
2021/06/11 14:06:02;;;;;;;5.63;4.90;;;;;;;;;;3598356;39;20438;-76
2021/06/11 14:08:28;;;;;;;5.77;5.47;;;;;;;;;;3584262;39;20447;-77
2021/06/11 14:10:54;;;;;;;4.33;3.93;;;;;;;;;;3591859;39;20423;-76
2021/06/11 14:13:23;;;;;;;4.50;4.20;;;;;;;;;;3588627;39;20390;-76
2021/06/11 14:15:50;;;;;;;6.80;6.40;;;;;;;;;;3588624;39;20437;-76
2021/06/11 14:18:17;;;;;;;6.13;5.63;;;;;;;;;;3601537;39;20488;-76
2021/06/11 14:20:43;;;;;;;5.43;5.00;;;;;;;;;;3600230;39;20414;-75
2021/06/11 14:23:11;;;;;;;5.77;5.40;;;;;;;;;;3601380;39;20426;-75
2021/06/11 14:25:42;;;;;;;6.10;4.80;;;;;;;;;;3591061;39;20504;-75